createdAt,value
2023-04-01T00:00:05.466Z,81.71
2023-04-01T00:01:05.457Z,82.97
2023-04-01T00:02:05.496Z,81.07
2023-04-01T00:03:05.556Z,79.28
2023-04-01T00:04:05.616Z,77.21
2023-04-01T00:05:05.619Z,77.90
2023-04-01T00:06:05.661Z,76.59
2023-04-01T00:07:05.695Z,75.67
2023-04-01T00:08:05.741Z,77.11
2023-04-01T00:09:05.789Z,78.73
2023-04-01T00:10:05.826Z,80.15
2023-04-01T00:11:05.872Z,81.78
2023-04-01T00:12:05.894Z,77.74
2023-04-01T00:13:05.926Z,77.62
2023-04-01T00:14:05.958Z,78.20
2023-04-01T00:15:06.071Z,78.78
2023-04-01T00:16:09.712Z,79.13
2023-04-01T00:17:07.077Z,79.26
2023-04-01T00:18:06.038Z,79.85
2023-04-01T00:19:06.013Z,80.08
2023-04-01T00:20:05.996Z,78.70
2023-04-01T00:21:06.601Z,77.23
2023-04-01T00:22:05.989Z,77.87
2023-04-01T00:23:05.981Z,78.91
2023-04-01T00:24:05.976Z,78.18
2023-04-01T00:25:05.967Z,79.36
2023-04-01T00:26:05.966Z,80.53
2023-04-01T00:27:06.020Z,80.69
2023-04-01T00:28:06.016Z,81.18
2023-04-01T00:29:06.060Z,80.05
2023-04-01T00:30:06.076Z,76.98
2023-04-01T00:31:06.157Z,74.91
2023-04-01T00:32:06.221Z,76.05
2023-04-01T00:33:06.231Z,74.33
2023-04-01T00:34:06.167Z,76.18
2023-04-01T00:35:06.181Z,77.94
2023-04-01T00:36:06.232Z,78.84
2023-04-01T00:37:06.292Z,77.29
2023-04-01T00:38:06.241Z,78.05
2023-04-01T00:39:06.299Z,74.63
2023-04-01T00:40:06.304Z,76.20
2023-04-01T00:41:06.300Z,77.57
2023-04-01T00:42:07.100Z,76.22
2023-04-01T00:43:06.335Z,75.88
2023-04-01T00:44:06.354Z,76.18
2023-04-01T00:45:06.369Z,76.65
2023-04-01T00:46:06.401Z,75.57
2023-04-01T00:47:06.527Z,73.87
2023-04-01T00:48:06.442Z,71.66
2023-04-01T00:49:06.420Z,71.77
2023-04-01T00:50:06.430Z,70.79
2023-04-01T00:51:06.438Z,71.83
2023-04-01T00:52:06.452Z,68.35
2023-04-01T00:53:06.460Z,67.86
2023-04-01T00:54:06.464Z,69.10
2023-04-01T00:55:06.474Z,69.05
2023-04-01T00:56:06.469Z,69.91
2023-04-01T00:57:06.497Z,69.94
2023-04-01T00:58:06.482Z,71.00
2023-04-01T00:59:06.496Z,72.23
2023-04-01T01:00:06.509Z,73.67
2023-04-01T01:01:06.548Z,73.40
2023-04-01T01:02:06.577Z,74.94
2023-04-01T01:03:06.585Z,74.15
2023-04-01T01:04:06.541Z,73.86
2023-04-01T01:05:06.564Z,75.49
2023-04-01T01:06:06.556Z,73.05
2023-04-01T01:07:06.569Z,69.66
2023-04-01T01:08:06.560Z,68.55
2023-04-01T01:09:06.566Z,67.17
2023-04-01T01:10:06.584Z,65.33
2023-04-01T01:11:06.553Z,65.53
2023-04-01T01:12:06.561Z,65.43
2023-04-01T01:13:06.561Z,66.63
2023-04-01T01:14:07.120Z,67.50
2023-04-01T01:15:06.626Z,67.27
2023-04-01T01:16:06.569Z,65.24
2023-04-01T01:17:06.547Z,64.39
2023-04-01T01:18:07.198Z,64.93
2023-04-01T01:19:06.559Z,66.46
2023-04-01T01:20:12.738Z,67.71
2023-04-01T01:21:07.560Z,67.77
2023-04-01T01:22:06.543Z,67.91
2023-04-01T01:23:06.543Z,68.40
2023-04-01T01:24:06.518Z,68.86
2023-04-01T01:25:06.528Z,70.86
2023-04-01T01:26:06.510Z,69.96
2023-04-01T01:27:06.507Z,70.39
2023-04-01T01:28:06.551Z,68.89
2023-04-01T01:29:06.488Z,68.55
2023-04-01T01:30:06.484Z,68.45
2023-04-01T01:31:06.504Z,66.11
2023-04-01T01:32:06.474Z,68.87
2023-04-01T01:33:06.528Z,68.14
2023-04-01T01:34:06.454Z,69.94
2023-04-01T01:35:06.445Z,68.83
2023-04-01T01:36:06.472Z,70.09
2023-04-01T01:37:06.454Z,70.79
2023-04-01T01:38:06.440Z,71.76
2023-04-01T01:39:06.452Z,72.17
2023-04-01T01:40:06.438Z,72.37
2023-04-01T01:41:06.423Z,72.41
2023-04-01T01:42:07.175Z,72.93
2023-04-01T01:43:06.392Z,71.18
2023-04-01T01:44:06.402Z,72.26
2023-04-01T01:45:06.404Z,71.02
2023-04-01T01:46:06.588Z,72.04
2023-04-01T01:47:06.414Z,73.81
2023-04-01T01:48:06.509Z,74.01
2023-04-01T01:49:06.412Z,73.93
2023-04-01T01:50:06.433Z,74.66
2023-04-01T01:51:06.425Z,74.63
2023-04-01T01:52:06.403Z,74.40
2023-04-01T01:53:06.401Z,73.67
2023-04-01T01:54:06.391Z,75.90
2023-04-01T01:55:06.393Z,75.40
2023-04-01T01:56:06.404Z,75.73
2023-04-01T01:57:06.465Z,75.95
2023-04-01T01:58:06.396Z,74.42
2023-04-01T01:59:06.399Z,75.57
2023-04-01T02:00:06.398Z,74.18
2023-04-01T02:01:06.410Z,73.15
2023-04-01T02:02:06.395Z,72.69
2023-04-01T02:03:06.444Z,74.53
2023-04-01T02:04:06.438Z,73.44
2023-04-01T02:05:06.396Z,73.53
2023-04-01T02:06:06.393Z,74.15
2023-04-01T02:07:06.397Z,71.42
2023-04-01T02:08:07.146Z,70.53
2023-04-01T02:09:06.407Z,70.19
2023-04-01T02:10:06.393Z,73.04
2023-04-01T02:11:06.397Z,72.74
2023-04-01T02:12:06.420Z,72.14
2023-04-01T02:13:06.428Z,72.54
2023-04-01T02:14:06.431Z,72.09
2023-04-01T02:15:06.494Z,72.34
2023-04-01T02:16:06.487Z,71.84
2023-04-01T02:17:06.443Z,71.63
2023-04-01T02:18:06.536Z,71.17
2023-04-01T02:19:06.434Z,72.25
2023-04-01T02:20:06.444Z,71.90
2023-04-01T02:21:06.437Z,71.82
2023-04-01T02:22:06.449Z,73.11
2023-04-01T02:23:06.442Z,71.77
2023-04-01T02:24:06.440Z,71.19
2023-04-01T02:25:06.456Z,71.55
2023-04-01T02:26:06.457Z,70.06
2023-04-01T02:27:06.453Z,70.44
2023-04-01T02:28:06.463Z,71.45
2023-04-01T02:29:06.461Z,69.21
2023-04-01T02:30:06.494Z,71.14
2023-04-01T02:31:06.472Z,71.75
2023-04-01T02:32:07.146Z,70.37
2023-04-01T02:33:06.528Z,69.42
2023-04-01T02:34:06.450Z,68.50
2023-04-01T02:35:06.454Z,69.23
2023-04-01T02:36:06.502Z,70.14
2023-04-01T02:37:06.459Z,70.92
2023-04-01T02:38:06.457Z,71.69
2023-04-01T02:39:06.454Z,71.83
2023-04-01T02:40:06.451Z,71.12
2023-04-01T02:41:06.448Z,69.50
2023-04-01T02:42:06.465Z,70.66
2023-04-01T02:43:06.466Z,70.41
2023-04-01T02:44:06.527Z,70.91
2023-04-01T02:45:06.476Z,69.58
2023-04-01T02:46:06.460Z,68.94
2023-04-01T02:47:06.593Z,69.80
2023-04-01T02:48:06.481Z,68.14
2023-04-01T02:49:06.491Z,67.48
2023-04-01T02:50:06.481Z,63.99
2023-04-01T02:51:06.485Z,62.34
2023-04-01T02:52:06.549Z,62.86
2023-04-01T02:53:06.535Z,64.62
2023-04-01T02:54:06.542Z,66.64
2023-04-01T02:55:06.550Z,67.71
2023-04-01T02:56:06.545Z,65.80
2023-04-01T02:57:06.592Z,65.55
2023-04-01T02:58:06.560Z,65.46
2023-04-01T02:59:06.571Z,65.87
2023-04-01T03:00:06.574Z,67.35
2023-04-01T03:01:06.617Z,67.72
2023-04-01T03:02:06.608Z,68.15
2023-04-01T03:03:06.623Z,67.09
2023-04-01T03:04:06.585Z,70.48
2023-04-01T03:05:06.565Z,70.64
2023-04-01T03:06:06.660Z,68.38
2023-04-01T03:07:06.586Z,68.32
2023-04-01T03:08:06.577Z,69.35
2023-04-01T03:09:06.576Z,68.79
2023-04-01T03:10:06.564Z,68.77
2023-04-01T03:11:06.573Z,68.96
2023-04-01T03:12:06.564Z,69.70
2023-04-01T03:13:06.573Z,69.76
2023-04-01T03:14:06.573Z,69.77
2023-04-01T03:15:10.404Z,70.57
2023-04-01T03:16:06.586Z,70.67
2023-04-01T03:17:06.558Z,70.62
2023-04-01T03:18:06.571Z,69.48
2023-04-01T03:19:06.557Z,70.73
2023-04-01T03:20:06.539Z,70.83
2023-04-01T03:21:07.171Z,70.05
2023-04-01T03:22:06.528Z,70.43
2023-04-01T03:23:06.514Z,69.75
2023-04-01T03:24:06.518Z,70.94
2023-04-01T03:25:06.511Z,71.02
2023-04-01T03:26:06.507Z,71.12
2023-04-01T03:27:06.500Z,70.65
2023-04-01T03:28:06.497Z,71.51
2023-04-01T03:29:06.498Z,72.02
2023-04-01T03:30:06.482Z,71.41
2023-04-01T03:31:06.489Z,72.40
2023-04-01T03:32:06.544Z,72.43
2023-04-01T03:33:06.467Z,72.32
2023-04-01T03:34:07.168Z,71.12
2023-04-01T03:35:06.522Z,72.95
2023-04-01T03:36:06.465Z,72.21
2023-04-01T03:37:06.421Z,72.26
2023-04-01T03:38:06.432Z,68.47
2023-04-01T03:39:06.400Z,69.40
2023-04-01T03:40:06.404Z,69.11
2023-04-01T03:41:06.406Z,68.46
2023-04-01T03:42:06.391Z,69.67
2023-04-01T03:43:06.402Z,70.43
2023-04-01T03:44:06.407Z,69.92
2023-04-01T03:45:06.365Z,69.38
2023-04-01T03:46:06.405Z,66.86
2023-04-01T03:47:06.349Z,68.21
2023-04-01T03:48:06.438Z,67.76
2023-04-01T03:49:06.339Z,68.63
2023-04-01T03:50:06.342Z,69.91
2023-04-01T03:51:06.334Z,69.14
2023-04-01T03:52:06.320Z,67.54
2023-04-01T03:53:06.310Z,69.18
2023-04-01T03:54:06.303Z,69.05
2023-04-01T03:55:06.301Z,68.61
2023-04-01T03:56:06.302Z,67.68
2023-04-01T03:57:06.347Z,68.44
2023-04-01T03:58:06.281Z,69.22
2023-04-01T03:59:06.282Z,69.28
2023-04-01T04:00:06.260Z,67.22
2023-04-01T04:01:06.251Z,68.49
2023-04-01T04:02:06.676Z,67.82
2023-04-01T04:03:06.310Z,69.74
2023-04-01T04:04:06.255Z,68.80
2023-04-01T04:05:06.237Z,68.24
2023-04-01T04:06:06.215Z,68.62
2023-04-01T04:07:06.215Z,68.44
2023-04-01T04:08:06.197Z,68.24
2023-04-01T04:09:06.208Z,68.70
2023-04-01T04:10:06.219Z,67.59
2023-04-01T04:11:06.219Z,68.53
2023-04-01T04:12:06.223Z,68.63
2023-04-01T04:13:06.231Z,70.09
2023-04-01T04:14:06.222Z,70.87
2023-04-01T04:15:06.218Z,69.79
2023-04-01T04:16:06.284Z,68.07
2023-04-01T04:17:06.324Z,69.24
2023-04-01T04:18:06.299Z,70.47
2023-04-01T04:19:06.237Z,66.88
2023-04-01T04:20:06.262Z,69.85
2023-04-01T04:21:06.255Z,70.44
2023-04-01T04:22:06.251Z,69.39
2023-04-01T04:23:06.693Z,70.53
2023-04-01T04:24:06.259Z,69.42
2023-04-01T04:25:06.267Z,70.60
2023-04-01T04:26:06.280Z,71.00
2023-04-01T04:27:06.268Z,70.41
2023-04-01T04:28:06.256Z,68.04
2023-04-01T04:29:06.262Z,66.68
2023-04-01T04:30:07.190Z,64.63
2023-04-01T04:31:06.329Z,64.33
2023-04-01T04:32:06.361Z,64.79
2023-04-01T04:33:06.300Z,61.16
2023-04-01T04:34:06.283Z,64.76
2023-04-01T04:35:06.296Z,66.69
2023-04-01T04:36:06.309Z,64.51
2023-04-01T04:37:06.303Z,63.04
2023-04-01T04:38:06.360Z,62.47
2023-04-01T04:39:06.324Z,64.66
2023-04-01T04:40:06.380Z,62.37
2023-04-01T04:41:06.324Z,64.54
2023-04-01T04:42:06.350Z,62.73
2023-04-01T04:43:06.335Z,61.65
2023-04-01T04:44:06.376Z,63.96
2023-04-01T04:45:06.352Z,61.93
2023-04-01T04:46:06.372Z,63.52
2023-04-01T04:47:06.407Z,61.95
2023-04-01T04:48:06.406Z,61.87
2023-04-01T04:49:06.384Z,63.87
2023-04-01T04:50:06.455Z,64.46
2023-04-01T04:51:06.551Z,62.77
2023-04-01T04:52:06.572Z,61.65
2023-04-01T04:53:06.587Z,59.78
2023-04-01T04:54:06.587Z,61.17
2023-04-01T04:55:06.606Z,64.49
2023-04-01T04:56:06.615Z,61.79
2023-04-01T04:57:06.695Z,61.40
2023-04-01T04:58:06.625Z,61.94
2023-04-01T04:59:06.650Z,60.69
2023-04-01T05:00:06.664Z,61.35
2023-04-01T05:01:06.749Z,61.02
2023-04-01T05:02:06.801Z,60.47
2023-04-01T05:03:06.799Z,60.55
2023-04-01T05:04:06.739Z,58.16
2023-04-01T05:05:06.803Z,57.62
2023-04-01T05:06:06.882Z,60.21
2023-04-01T05:07:06.797Z,61.24
2023-04-01T05:08:06.792Z,60.60
2023-04-01T05:09:06.807Z,60.27
2023-04-01T05:10:06.833Z,59.24
2023-04-01T05:11:07.051Z,59.55
2023-04-01T05:12:06.850Z,60.82
2023-04-01T05:13:06.860Z,60.34
2023-04-01T05:14:06.851Z,61.90
2023-04-01T05:15:06.868Z,58.06
2023-04-01T05:16:06.887Z,59.61
2023-04-01T05:17:07.016Z,58.97
2023-04-01T05:18:07.078Z,59.67
2023-04-01T05:19:07.047Z,59.72
2023-04-01T05:20:07.062Z,61.07
2023-04-01T05:21:07.077Z,59.58
2023-04-01T05:22:07.124Z,59.49
2023-04-01T05:23:07.249Z,62.19
2023-04-01T05:24:07.161Z,60.33
2023-04-01T05:25:07.183Z,54.86
2023-04-01T05:26:07.177Z,54.35
2023-04-01T05:27:07.218Z,54.47
2023-04-01T05:28:07.239Z,56.20
2023-04-01T05:29:07.234Z,55.72
2023-04-01T05:30:07.263Z,57.10
2023-04-01T05:31:07.317Z,56.80
2023-04-01T05:32:07.288Z,56.64
2023-04-01T05:33:07.355Z,56.17
2023-04-01T05:34:07.314Z,56.19
2023-04-01T05:35:07.320Z,56.06
2023-04-01T05:36:07.398Z,53.49
2023-04-01T05:37:07.363Z,56.35
2023-04-01T05:38:08.218Z,53.21
2023-04-01T05:39:07.390Z,55.04
2023-04-01T05:40:07.406Z,56.34
2023-04-01T05:41:07.404Z,53.88
2023-04-01T05:42:07.410Z,55.21
2023-04-01T05:43:07.436Z,54.99
2023-04-01T05:44:07.437Z,54.92
2023-04-01T05:45:07.450Z,55.04
2023-04-01T05:46:07.538Z,54.34
2023-04-01T05:47:07.492Z,55.89
2023-04-01T05:48:07.580Z,52.87
2023-04-01T05:49:07.515Z,51.83
2023-04-01T05:50:07.520Z,52.37
2023-04-01T05:51:08.227Z,53.10
2023-04-01T05:52:07.524Z,53.63
2023-04-01T05:53:07.542Z,54.53
2023-04-01T05:54:07.578Z,53.31
2023-04-01T05:55:07.554Z,54.35
2023-04-01T05:56:07.569Z,53.48
2023-04-01T05:57:07.619Z,55.76
2023-04-01T05:58:07.595Z,54.53
2023-04-01T05:59:08.311Z,56.20
2023-04-01T06:00:07.730Z,55.99
2023-04-01T06:01:11.533Z,55.84
2023-04-01T06:02:08.590Z,55.96
2023-04-01T06:03:07.638Z,56.27
2023-04-01T06:04:07.806Z,56.87
2023-04-01T06:05:07.563Z,57.23
2023-04-01T06:06:07.612Z,58.05
2023-04-01T06:07:07.612Z,57.56
2023-04-01T06:08:07.545Z,60.25
2023-04-01T06:09:08.278Z,57.41
2023-04-01T06:10:07.539Z,55.91
2023-04-01T06:11:07.510Z,58.83
2023-04-01T06:12:07.519Z,57.56
2023-04-01T06:13:07.514Z,58.02
2023-04-01T06:14:07.528Z,58.84
2023-04-01T06:15:07.500Z,58.65
2023-04-01T06:16:07.545Z,56.72
2023-04-01T06:17:07.477Z,56.56
2023-04-01T06:18:07.606Z,57.97
2023-04-01T06:19:07.480Z,57.59
2023-04-01T06:20:07.467Z,58.72
2023-04-01T06:21:07.473Z,55.41
2023-04-01T06:22:07.444Z,57.35
2023-04-01T06:23:07.448Z,59.27
2023-04-01T06:24:07.453Z,55.11
2023-04-01T06:25:07.433Z,56.86
2023-04-01T06:26:07.417Z,55.84
2023-04-01T06:27:07.417Z,58.63
2023-04-01T06:28:08.951Z,56.06
2023-04-01T06:29:07.398Z,55.84
2023-04-01T06:30:07.403Z,57.31
2023-04-01T06:31:07.421Z,56.99
2023-04-01T06:32:07.400Z,56.36
2023-04-01T06:33:07.415Z,57.77
2023-04-01T06:34:07.425Z,55.56
2023-04-01T06:35:07.364Z,56.30
2023-04-01T06:36:07.402Z,57.51
2023-04-01T06:37:07.373Z,57.60
2023-04-01T06:38:07.343Z,56.66
2023-04-01T06:39:09.649Z,56.61
2023-04-01T06:40:07.327Z,58.43
2023-04-01T06:41:07.541Z,59.30
2023-04-01T06:42:07.330Z,58.78
2023-04-01T06:43:07.306Z,58.03
2023-04-01T06:44:07.320Z,58.05
2023-04-01T06:45:07.316Z,59.66
2023-04-01T06:46:08.260Z,58.27
2023-04-01T06:47:08.255Z,58.14
2023-04-01T06:48:07.309Z,58.38
2023-04-01T06:49:07.315Z,57.93
2023-04-01T06:50:07.256Z,58.29
2023-04-01T06:51:07.253Z,57.69
2023-04-01T06:52:07.245Z,57.00
2023-04-01T06:53:07.236Z,59.22
2023-04-01T06:54:07.227Z,58.14
2023-04-01T06:55:07.215Z,56.40
2023-04-01T06:56:07.204Z,57.94
2023-04-01T06:57:07.231Z,55.13
2023-04-01T06:58:07.225Z,58.40
2023-04-01T06:59:07.191Z,54.38
2023-04-01T07:00:07.193Z,53.58
2023-04-01T07:01:07.200Z,53.60
2023-04-01T07:02:07.172Z,54.83
2023-04-01T07:03:07.194Z,54.79
2023-04-01T07:04:07.176Z,56.16
2023-04-01T07:05:07.166Z,54.85
2023-04-01T07:06:07.150Z,54.49
2023-04-01T07:07:07.146Z,55.72
2023-04-01T07:08:07.191Z,52.08
2023-04-01T07:09:07.131Z,53.28
2023-04-01T07:10:07.116Z,53.99
2023-04-01T07:11:07.127Z,53.54
2023-04-01T07:12:07.111Z,54.65
2023-04-01T07:13:07.098Z,54.96
2023-04-01T07:14:07.187Z,53.84
2023-04-01T07:15:07.172Z,54.20
2023-04-01T07:16:07.078Z,54.45
2023-04-01T07:17:07.195Z,53.83
2023-04-01T07:18:07.809Z,55.77
2023-04-01T07:19:07.056Z,52.56
2023-04-01T07:20:07.047Z,54.49
2023-04-01T07:21:07.051Z,54.01
2023-04-01T07:22:07.058Z,53.02
2023-04-01T07:23:07.031Z,52.64
2023-04-01T07:24:07.023Z,52.88
2023-04-01T07:25:07.128Z,53.53
2023-04-01T07:26:07.019Z,51.97
2023-04-01T07:27:07.001Z,52.20
2023-04-01T07:28:07.300Z,51.31
2023-04-01T07:29:06.997Z,52.57
2023-04-01T07:30:06.972Z,49.92
2023-04-01T07:31:06.999Z,51.38
2023-04-01T07:32:06.956Z,49.31
2023-04-01T07:33:06.989Z,47.80
2023-04-01T07:34:06.948Z,44.89
2023-04-01T07:35:06.944Z,44.67
2023-04-01T07:36:06.940Z,44.31
2023-04-01T07:37:06.925Z,46.15
2023-04-01T07:38:06.925Z,45.02
2023-04-01T07:39:06.921Z,45.04
2023-04-01T07:40:06.910Z,44.25
2023-04-01T07:41:06.898Z,43.12
2023-04-01T07:42:06.892Z,45.20
2023-04-01T07:43:06.946Z,45.89
2023-04-01T07:44:06.876Z,44.25
2023-04-01T07:45:06.893Z,42.25
2023-04-01T07:46:06.998Z,41.91
2023-04-01T07:47:06.860Z,41.16
2023-04-01T07:48:06.889Z,42.67
2023-04-01T07:49:06.879Z,43.74
2023-04-01T07:50:06.908Z,43.01
2023-04-01T07:51:06.954Z,42.68
2023-04-01T07:52:06.979Z,43.77
2023-04-01T07:53:07.037Z,40.34
2023-04-01T07:54:07.066Z,42.85
2023-04-01T07:55:07.113Z,41.93
2023-04-01T07:56:07.187Z,44.65
2023-04-01T07:57:07.261Z,43.86
2023-04-01T07:58:07.276Z,43.77
2023-04-01T07:59:07.338Z,44.05
2023-04-01T08:00:07.385Z,42.88
2023-04-01T08:01:07.432Z,43.69
2023-04-01T08:02:07.549Z,43.42
2023-04-01T08:03:07.642Z,43.24
2023-04-01T08:04:07.733Z,44.23
2023-04-01T08:05:07.656Z,42.63
2023-04-01T08:06:07.704Z,40.54
2023-04-01T08:07:07.762Z,43.32
2023-04-01T08:08:07.814Z,41.21
2023-04-01T08:09:07.869Z,39.97
2023-04-01T08:10:07.933Z,39.29
2023-04-01T08:11:07.977Z,40.98
2023-04-01T08:12:08.032Z,41.42
2023-04-01T08:13:08.072Z,40.94
2023-04-01T08:14:08.108Z,41.20
2023-04-01T08:15:08.128Z,42.23
2023-04-01T08:16:08.192Z,43.22
2023-04-01T08:17:08.163Z,43.79
2023-04-01T08:18:08.239Z,44.05
2023-04-01T08:19:08.219Z,44.05
2023-04-01T08:20:08.309Z,42.26
2023-04-01T08:21:08.245Z,43.42
2023-04-01T08:22:08.337Z,46.13
2023-04-01T08:23:08.268Z,46.59
2023-04-01T08:24:08.338Z,46.40
2023-04-01T08:25:08.307Z,44.57
2023-04-01T08:26:08.333Z,43.90
2023-04-01T08:27:08.355Z,44.25
2023-04-01T08:28:08.377Z,43.81
2023-04-01T08:29:08.402Z,43.19
2023-04-01T08:30:10.404Z,44.80
2023-04-01T08:31:08.485Z,44.76
2023-04-01T08:32:08.493Z,44.60
2023-04-01T08:33:08.426Z,45.10
2023-04-01T08:34:08.410Z,45.54
2023-04-01T08:35:08.429Z,47.83
2023-04-01T08:36:08.462Z,47.97
2023-04-01T08:37:08.488Z,49.05
2023-04-01T08:38:08.415Z,45.56
2023-04-01T08:39:08.458Z,43.49
2023-04-01T08:40:08.500Z,45.50
2023-04-01T08:41:08.518Z,45.15
2023-04-01T08:42:08.535Z,43.88
2023-04-01T08:43:08.514Z,44.33
2023-04-01T08:44:08.523Z,43.07
2023-04-01T08:45:08.549Z,42.19
2023-04-01T08:46:08.621Z,39.33
2023-04-01T08:47:09.294Z,40.03
2023-04-01T08:48:08.616Z,40.92
2023-04-01T08:49:08.615Z,41.03
2023-04-01T08:50:08.723Z,40.92
2023-04-01T08:51:08.671Z,41.34
2023-04-01T08:52:08.691Z,40.15
2023-04-01T08:53:08.720Z,39.68
2023-04-01T08:54:08.752Z,39.25
2023-04-01T08:55:08.785Z,39.70
2023-04-01T08:56:08.814Z,40.05
2023-04-01T08:57:08.867Z,38.89
2023-04-01T08:58:08.928Z,41.49
2023-04-01T08:59:08.907Z,38.28
2023-04-01T09:00:08.940Z,39.67
2023-04-01T09:01:09.791Z,39.62
2023-04-01T09:02:09.027Z,40.78
2023-04-01T09:03:09.176Z,42.09
2023-04-01T09:04:09.184Z,43.04
2023-04-01T09:05:09.109Z,42.02
2023-04-01T09:06:09.136Z,41.36
2023-04-01T09:07:10.420Z,41.37
2023-04-01T09:08:09.183Z,41.34
2023-04-01T09:09:09.214Z,41.94
2023-04-01T09:10:09.238Z,43.73
2023-04-01T09:11:09.264Z,40.30
2023-04-01T09:12:09.385Z,41.65
2023-04-01T09:13:09.314Z,40.22
2023-04-01T09:14:09.347Z,40.63
2023-04-01T09:15:09.377Z,41.55
2023-04-01T09:16:09.460Z,38.64
2023-04-01T09:17:09.443Z,35.77
2023-04-01T09:18:09.614Z,38.39
2023-04-01T09:19:10.079Z,38.12
2023-04-01T09:20:09.544Z,38.16
2023-04-01T09:21:09.582Z,39.49
2023-04-01T09:22:09.609Z,41.13
2023-04-01T09:23:09.670Z,41.93
2023-04-01T09:24:09.684Z,42.40
2023-04-01T09:25:09.716Z,41.48
2023-04-01T09:26:09.756Z,44.07
2023-04-01T09:27:09.777Z,43.58
2023-04-01T09:28:09.816Z,45.66
2023-04-01T09:29:09.844Z,44.90
2023-04-01T09:30:09.886Z,46.43
2023-04-01T09:31:09.931Z,45.12
2023-04-01T09:32:09.964Z,45.46
2023-04-01T09:33:09.993Z,46.56
2023-04-01T09:34:10.031Z,43.59
2023-04-01T09:35:10.054Z,44.51
2023-04-01T09:36:10.127Z,45.25
2023-04-01T09:37:10.120Z,45.60
2023-04-01T09:38:10.221Z,46.74
2023-04-01T09:39:10.190Z,47.42
2023-04-01T09:40:10.275Z,47.98
2023-04-01T09:41:10.242Z,47.69
2023-04-01T09:42:10.348Z,46.36
2023-04-01T09:43:10.298Z,46.80
2023-04-01T09:44:10.332Z,47.98
2023-04-01T09:45:10.356Z,46.14
2023-04-01T09:46:10.415Z,47.33
2023-04-01T09:47:11.328Z,46.87
2023-04-01T09:48:10.489Z,46.30
2023-04-01T09:49:10.458Z,46.03
2023-04-01T09:50:10.486Z,44.99
2023-04-01T09:51:10.502Z,43.77
2023-04-01T09:52:10.522Z,45.11
2023-04-01T09:53:10.544Z,41.31
2023-04-01T09:54:10.555Z,42.57
2023-04-01T09:55:10.573Z,41.26
2023-04-01T09:56:10.575Z,41.59
2023-04-01T09:57:10.627Z,41.01
2023-04-01T09:58:10.610Z,42.04
2023-04-01T09:59:10.614Z,41.78
2023-04-01T10:00:10.720Z,42.06
2023-04-01T10:01:10.625Z,41.78
2023-04-01T10:02:10.671Z,43.35
2023-04-01T10:03:10.700Z,41.20
2023-04-01T10:04:10.663Z,40.86
2023-04-01T10:05:10.688Z,39.57
2023-04-01T10:06:10.753Z,34.39
2023-04-01T10:07:10.674Z,31.73
2023-04-01T10:08:10.671Z,34.43
2023-04-01T10:09:10.677Z,35.37
2023-04-01T10:10:10.697Z,35.29
2023-04-01T10:11:10.690Z,35.19
2023-04-01T10:12:10.695Z,37.45
2023-04-01T10:13:10.716Z,40.03
2023-04-01T10:14:10.697Z,38.15
2023-04-01T10:15:10.704Z,34.39
2023-04-01T10:16:10.724Z,33.10
2023-04-01T10:17:10.703Z,35.28
2023-04-01T10:18:10.723Z,32.58
2023-04-01T10:19:10.700Z,25.60
2023-04-01T10:20:10.718Z,26.30
2023-04-01T10:21:10.708Z,26.91
2023-04-01T10:22:10.699Z,29.73
2023-04-01T10:23:10.716Z,33.21
2023-04-01T10:24:10.694Z,36.53
2023-04-01T10:25:10.703Z,39.82
2023-04-01T10:26:10.709Z,39.00
2023-04-01T10:27:10.724Z,40.37
2023-04-01T10:28:10.696Z,40.01
2023-04-01T10:29:10.700Z,43.57
2023-04-01T10:30:10.705Z,45.75
2023-04-01T10:31:10.714Z,45.46
2023-04-01T10:32:10.766Z,46.83
2023-04-01T10:33:10.776Z,46.06
2023-04-01T10:34:10.784Z,44.51
2023-04-01T10:35:10.783Z,41.54
2023-04-01T10:36:10.909Z,38.68
2023-04-01T10:37:10.866Z,38.21
2023-04-01T10:38:10.905Z,39.57
2023-04-01T10:39:10.959Z,35.14
2023-04-01T10:40:11.021Z,37.77
2023-04-01T10:41:11.038Z,34.82
2023-04-01T10:42:11.142Z,27.21
2023-04-01T10:43:11.081Z,25.61
2023-04-01T10:44:11.108Z,24.44
2023-04-01T10:45:11.124Z,25.00
2023-04-01T10:46:11.197Z,25.34
2023-04-01T10:47:11.173Z,25.51
2023-04-01T10:48:11.220Z,27.77
2023-04-01T10:49:11.252Z,27.55
2023-04-01T10:50:11.304Z,26.25
2023-04-01T10:51:11.320Z,30.79
2023-04-01T10:52:11.344Z,29.72
2023-04-01T10:53:11.356Z,26.23
2023-04-01T10:54:11.400Z,29.45
2023-04-01T10:55:11.435Z,31.73
2023-04-01T10:56:11.477Z,25.81
2023-04-01T10:57:11.529Z,26.69
2023-04-01T10:58:11.841Z,31.68
2023-04-01T10:59:11.634Z,38.59
2023-04-01T11:00:11.602Z,33.98
2023-04-01T11:01:11.651Z,32.81
2023-04-01T11:02:12.346Z,29.57
2023-04-01T11:03:11.744Z,28.57
2023-04-01T11:04:11.674Z,30.54
2023-04-01T11:05:11.706Z,32.75
2023-04-01T11:06:11.709Z,33.23
2023-04-01T11:07:11.709Z,30.39
2023-04-01T11:08:11.737Z,26.78
2023-04-01T11:09:11.757Z,25.00
2023-04-01T11:10:11.757Z,25.37
2023-04-01T11:11:11.764Z,25.55
2023-04-01T11:12:11.785Z,26.88
2023-04-01T11:13:11.772Z,25.52
2023-04-01T11:14:11.770Z,27.70
2023-04-01T11:15:12.355Z,26.77
2023-04-01T11:16:11.800Z,25.00
2023-04-01T11:17:11.765Z,26.85
2023-04-01T11:18:11.794Z,26.44
2023-04-01T11:19:11.776Z,25.00
2023-04-01T11:20:11.799Z,27.38
2023-04-01T11:21:11.846Z,31.28
2023-04-01T11:22:11.823Z,31.31
2023-04-01T11:23:11.799Z,32.02
2023-04-01T11:24:11.810Z,30.85
2023-04-01T11:25:11.801Z,28.46
2023-04-01T11:26:11.817Z,25.50
2023-04-01T11:27:11.927Z,25.76
2023-04-01T11:28:11.822Z,25.00
2023-04-01T11:29:11.823Z,26.28
2023-04-01T11:30:11.824Z,28.65
2023-04-01T11:31:11.867Z,27.50
2023-04-01T11:32:11.836Z,27.88
2023-04-01T11:33:11.934Z,26.69
2023-04-01T11:34:11.852Z,25.74
2023-04-01T11:35:11.857Z,25.70
2023-04-01T11:36:11.901Z,25.92
2023-04-01T11:37:11.873Z,27.01
2023-04-01T11:38:11.901Z,24.91
2023-04-01T11:39:11.896Z,26.90
2023-04-01T11:40:11.905Z,28.42
2023-04-01T11:41:11.919Z,31.28
2023-04-01T11:42:11.916Z,29.30
2023-04-01T11:43:19.959Z,26.89
2023-04-01T11:44:12.925Z,27.08
2023-04-01T11:45:11.916Z,26.70
2023-04-01T11:46:11.974Z,27.80
2023-04-01T11:47:11.899Z,28.35
2023-04-01T11:48:11.893Z,30.03
2023-04-01T11:49:11.883Z,30.43
2023-04-01T11:50:11.872Z,32.70
2023-04-01T11:51:11.880Z,34.22
2023-04-01T11:52:11.941Z,36.80
2023-04-01T11:53:11.863Z,35.89
2023-04-01T11:54:11.849Z,37.65
2023-04-01T11:55:11.841Z,38.76
2023-04-01T11:56:11.848Z,36.39
2023-04-01T11:57:11.891Z,37.00
2023-04-01T11:58:11.826Z,35.78
2023-04-01T11:59:11.822Z,36.31
2023-04-01T12:00:11.823Z,37.66
2023-04-01T12:01:11.872Z,34.91
2023-04-01T12:02:11.834Z,32.37
2023-04-01T12:03:11.893Z,32.44
2023-04-01T12:04:11.872Z,30.40
2023-04-01T12:05:11.781Z,30.88
2023-04-01T12:06:11.778Z,34.96
2023-04-01T12:07:11.774Z,32.79
2023-04-01T12:08:11.764Z,36.14
2023-04-01T12:09:11.766Z,35.27
2023-04-01T12:10:11.800Z,31.15
2023-04-01T12:11:11.743Z,31.19
2023-04-01T12:12:11.732Z,30.13
2023-04-01T12:13:11.729Z,27.46
2023-04-01T12:14:11.734Z,28.27
2023-04-01T12:15:11.781Z,31.46
2023-04-01T12:16:11.827Z,29.99
2023-04-01T12:17:11.818Z,30.07
2023-04-01T12:18:11.877Z,31.36
2023-04-01T12:19:11.876Z,30.26
2023-04-01T12:20:11.895Z,28.56
2023-04-01T12:21:11.932Z,26.86
2023-04-01T12:22:11.952Z,29.51
2023-04-01T12:23:11.972Z,31.03
2023-04-01T12:24:12.000Z,29.18
2023-04-01T12:25:12.023Z,30.21
2023-04-01T12:26:12.057Z,28.91
2023-04-01T12:27:12.074Z,30.90
2023-04-01T12:28:12.162Z,30.84
2023-04-01T12:29:12.116Z,27.61
2023-04-01T12:30:12.140Z,28.77
2023-04-01T12:31:12.175Z,30.29
2023-04-01T12:32:12.896Z,29.17
2023-04-01T12:33:12.289Z,30.18
2023-04-01T12:34:12.260Z,31.06
2023-04-01T12:35:12.282Z,30.36
2023-04-01T12:36:12.363Z,31.55
2023-04-01T12:37:12.346Z,27.19
2023-04-01T12:38:12.877Z,26.71
2023-04-01T12:39:12.384Z,27.24
2023-04-01T12:40:12.416Z,28.54
2023-04-01T12:41:12.479Z,28.15
2023-04-01T12:42:12.468Z,29.42
2023-04-01T12:43:12.505Z,32.81
2023-04-01T12:44:12.517Z,32.70
2023-04-01T12:45:12.560Z,33.62
2023-04-01T12:46:12.599Z,30.24
2023-04-01T12:47:12.621Z,29.84
2023-04-01T12:48:12.665Z,30.39
2023-04-01T12:49:12.697Z,29.98
2023-04-01T12:50:12.712Z,27.78
2023-04-01T12:51:12.739Z,29.65
2023-04-01T12:52:12.768Z,30.96